createdAt,value
2023-02-06T00:01:49.722Z,-2.06
2023-02-06T00:04:18.205Z,-2.05
2023-02-06T00:06:47.232Z,-2.07
2023-02-06T00:09:16.185Z,-2.10
2023-02-06T00:11:44.672Z,-2.15
2023-02-06T00:14:13.075Z,-2.11
2023-02-06T00:16:43.082Z,-2.09
2023-02-06T00:19:11.557Z,-2.11
2023-02-06T00:21:40.069Z,-2.10
2023-02-06T00:24:08.732Z,-2.12
2023-02-06T00:26:37.481Z,-2.19
2023-02-06T00:29:06.117Z,-2.26
2023-02-06T00:31:34.690Z,-2.24
2023-02-06T00:34:04.771Z,-2.21
2023-02-06T00:36:34.309Z,-2.20
2023-02-06T00:39:03.055Z,-2.19
2023-02-06T00:41:31.569Z,-2.19
2023-02-06T00:43:59.930Z,-2.21
2023-02-06T00:46:28.420Z,-2.18
2023-02-06T00:48:56.929Z,-2.20
2023-02-06T00:51:26.773Z,-2.17
2023-02-06T00:53:55.244Z,-2.18
2023-02-06T00:56:23.615Z,-2.20
2023-02-06T00:58:52.066Z,-2.23
2023-02-06T01:01:20.552Z,-2.23
2023-02-06T01:03:49.152Z,-2.22
2023-02-06T01:06:18.186Z,-2.22
2023-02-06T01:08:48.980Z,-2.24
2023-02-06T01:11:20.534Z,-2.24
2023-02-06T01:13:49.521Z,-2.22
2023-02-06T01:16:21.750Z,-2.23
2023-02-06T01:18:50.738Z,-2.20
2023-02-06T01:21:21.583Z,-2.21
2023-02-06T01:23:53.602Z,-2.23
2023-02-06T01:26:24.654Z,-2.22
2023-02-06T01:28:53.184Z,-2.24
2023-02-06T01:31:24.428Z,-2.24
2023-02-06T01:33:53.639Z,-2.33
2023-02-06T01:37:17.552Z,-2.36
2023-02-06T01:39:47.444Z,-2.36
2023-02-06T01:42:15.938Z,-2.35
2023-02-06T01:44:44.416Z,-2.34
2023-02-06T01:47:12.908Z,-2.34
2023-02-06T01:49:45.609Z,-2.35
2023-02-06T01:52:18.928Z,-2.45
2023-02-06T01:54:51.871Z,-2.38
2023-02-06T01:57:22.138Z,-2.40
2023-02-06T02:00:01.536Z,-2.47
2023-02-06T02:02:31.045Z,-2.40
2023-02-06T02:05:02.493Z,-2.41
2023-02-06T02:07:36.527Z,-2.43
2023-02-06T02:10:07.351Z,-2.43
2023-02-06T02:12:35.835Z,-2.44
2023-02-06T02:15:04.472Z,-2.48
2023-02-06T02:17:42.752Z,-2.48
2023-02-06T02:20:34.255Z,-2.45
2023-02-06T02:23:20.060Z,-2.45
2023-02-06T02:26:08.324Z,-2.43
2023-02-06T02:29:17.079Z,-2.46
2023-02-06T02:32:22.202Z,-2.44
2023-02-06T02:35:25.069Z,-2.44
2023-02-06T02:38:03.597Z,-2.45
2023-02-06T02:40:41.800Z,-2.45
2023-02-06T02:43:20.010Z,-2.44
2023-02-06T02:45:53.740Z,-2.47
2023-02-06T02:48:26.896Z,-2.47
2023-02-06T02:51:00.110Z,-2.46
2023-02-06T02:53:28.946Z,-2.49
2023-02-06T02:55:57.389Z,-2.47
2023-02-06T02:58:30.545Z,-2.56
2023-02-06T03:01:05.648Z,-2.48
2023-02-06T03:03:36.830Z,-2.49
2023-02-06T03:06:31.075Z,-2.61
2023-02-06T03:09:04.839Z,-2.51
2023-02-06T03:11:33.619Z,-2.51
2023-02-06T03:14:07.939Z,-2.52
2023-02-06T03:16:40.925Z,-2.52
2023-02-06T03:19:13.304Z,-2.54
2023-02-06T03:21:46.217Z,-2.64
2023-02-06T03:24:20.714Z,-2.60
2023-02-06T03:26:52.079Z,-2.59
2023-02-06T03:29:21.829Z,-2.58
2023-02-06T03:31:55.243Z,-2.56
2023-02-06T03:34:27.895Z,-2.57
2023-02-06T03:36:58.008Z,-2.56
2023-02-06T03:39:26.835Z,-2.67
2023-02-06T03:41:57.800Z,-2.54
2023-02-06T03:44:30.345Z,-2.61
2023-02-06T03:47:01.652Z,-2.56
2023-02-06T03:49:33.472Z,-2.57
2023-02-06T03:52:07.446Z,-2.59
2023-02-06T03:54:40.234Z,-2.60
2023-02-06T03:57:13.193Z,-2.59
2023-02-06T03:59:41.817Z,-2.58
2023-02-06T04:02:10.826Z,-2.59
2023-02-06T04:04:42.229Z,-2.61
2023-02-06T04:07:16.911Z,-2.63
2023-02-06T04:09:45.684Z,-2.65
2023-02-06T04:12:14.125Z,-2.75
2023-02-06T04:14:42.580Z,-2.80
2023-02-06T04:17:12.176Z,-2.80
2023-02-06T04:19:42.366Z,-2.76
2023-02-06T04:22:15.273Z,-2.76
2023-02-06T04:24:44.040Z,-2.70
2023-02-06T04:27:14.938Z,-2.69
2023-02-06T04:29:43.411Z,-2.66
2023-02-06T04:32:12.077Z,-2.65
2023-02-06T04:34:40.712Z,-2.65
2023-02-06T04:37:09.745Z,-2.68
2023-02-06T04:39:39.931Z,-2.70
2023-02-06T04:42:08.927Z,-2.70
2023-02-06T04:44:38.683Z,-2.72
2023-02-06T04:47:07.541Z,-2.72
2023-02-06T04:49:35.971Z,-2.74
2023-02-06T04:52:04.502Z,-2.74
2023-02-06T04:54:33.066Z,-2.72
2023-02-06T04:57:02.976Z,-2.66
2023-02-06T04:59:31.570Z,-2.63
2023-02-06T05:01:59.975Z,-2.67
2023-02-06T05:04:28.633Z,-2.73
2023-02-06T05:06:59.830Z,-2.83
2023-02-06T05:09:28.672Z,-2.83
2023-02-06T05:11:57.196Z,-2.84
2023-02-06T05:14:27.280Z,-2.74
2023-02-06T05:16:55.901Z,-2.73
2023-02-06T05:19:24.401Z,-2.74
2023-02-06T05:21:53.166Z,-2.74
2023-02-06T05:24:21.712Z,-2.81
2023-02-06T05:26:50.379Z,-2.80
2023-02-06T05:29:18.765Z,-2.79
2023-02-06T05:31:48.686Z,-2.77
2023-02-06T05:34:17.152Z,-2.79
2023-02-06T05:36:45.694Z,-2.70
2023-02-06T05:39:16.955Z,-2.70
2023-02-06T05:41:45.631Z,-2.69
2023-02-06T05:44:14.345Z,-2.67
2023-02-06T05:46:42.754Z,-2.75
2023-02-06T05:49:12.890Z,-2.65
2023-02-06T05:51:41.313Z,-2.63
2023-02-06T05:54:09.859Z,-2.61
2023-02-06T05:56:38.415Z,-2.60
2023-02-06T05:59:06.843Z,-2.62
2023-02-06T06:01:36.034Z,-2.75
2023-02-06T06:04:04.620Z,-2.82
2023-02-06T06:06:34.880Z,-2.73
2023-02-06T06:09:03.662Z,-2.77
2023-02-06T06:11:33.661Z,-2.73
2023-02-06T06:14:02.202Z,-2.71
2023-02-06T06:16:30.708Z,-2.70
2023-02-06T06:18:59.231Z,-2.71
2023-02-06T06:21:27.713Z,-2.68
2023-02-06T06:23:58.058Z,-2.73
2023-02-06T06:26:26.500Z,-2.67
2023-02-06T06:28:54.981Z,-2.81
2023-02-06T06:31:23.541Z,-2.75
2023-02-06T06:33:53.013Z,-2.73
2023-02-06T06:36:21.506Z,-2.77
2023-02-06T06:38:50.141Z,-2.77
2023-02-06T06:41:20.020Z,-2.77
2023-02-06T06:43:51.227Z,-2.70
2023-02-06T06:46:20.020Z,-2.67
2023-02-06T06:48:48.539Z,-2.64
2023-02-06T06:51:17.184Z,-2.65
2023-02-06T06:53:45.764Z,-2.71
2023-02-06T06:56:15.800Z,-2.68
2023-02-06T06:58:45.668Z,-2.75
2023-02-06T07:01:15.200Z,-2.70
2023-02-06T07:03:45.629Z,-2.68
2023-02-06T07:06:14.395Z,-2.62
2023-02-06T07:08:43.771Z,-2.69
2023-02-06T07:11:14.743Z,-2.61
2023-02-06T07:13:46.211Z,-2.55
2023-02-06T07:16:15.047Z,-2.50
2023-02-06T07:18:43.574Z,-2.47
2023-02-06T07:21:14.358Z,-2.50
2023-02-06T07:23:43.042Z,-2.42
2023-02-06T07:26:11.530Z,-2.44
2023-02-06T07:28:40.227Z,-2.44
2023-02-06T07:31:10.352Z,-2.39
2023-02-06T07:33:38.818Z,-2.38
2023-02-06T07:36:10.817Z,-2.37
2023-02-06T07:38:39.242Z,-2.39
2023-02-06T07:41:08.506Z,-2.36
2023-02-06T07:43:37.132Z,-2.35
2023-02-06T07:46:07.463Z,-2.33
2023-02-06T07:48:37.414Z,-2.30
2023-02-06T07:51:07.191Z,-2.32
2023-02-06T07:53:36.075Z,-2.25
2023-02-06T07:56:11.371Z,-2.22
2023-02-06T07:58:39.842Z,-2.20
2023-02-06T08:01:08.785Z,-2.16
2023-02-06T08:03:38.996Z,-2.18
2023-02-06T08:06:11.790Z,-2.09
2023-02-06T08:08:40.572Z,-2.05
2023-02-06T08:11:10.297Z,-1.99
2023-02-06T08:13:39.577Z,-1.92
2023-02-06T08:16:10.351Z,-1.94
2023-02-06T08:18:40.769Z,-1.94
2023-02-06T08:21:11.861Z,-2.06
2023-02-06T08:23:40.580Z,-1.93
2023-02-06T08:26:11.555Z,-1.83
2023-02-06T08:28:42.284Z,-1.81
2023-02-06T08:31:12.554Z,-1.75
2023-02-06T08:33:42.915Z,-1.70
2023-02-06T08:36:12.625Z,-1.63
2023-02-06T08:38:41.729Z,-1.54
2023-02-06T08:41:19.085Z,-1.49
2023-02-06T08:43:47.815Z,-1.38
2023-02-06T08:46:17.791Z,-1.31
2023-02-06T08:48:48.184Z,-1.17
2023-02-06T08:51:16.861Z,-1.07
2023-02-06T08:53:45.257Z,-0.98
2023-02-06T08:56:14.105Z,-0.95
2023-02-06T08:58:42.864Z,-0.93
2023-02-06T09:01:14.643Z,-0.91
2023-02-06T09:03:43.205Z,-0.84
2023-02-06T09:06:13.809Z,-0.77
2023-02-06T09:08:42.920Z,-0.72
2023-02-06T09:11:12.208Z,-0.68
2023-02-06T09:13:41.028Z,-0.65
2023-02-06T09:16:10.018Z,-0.61
2023-02-06T09:18:38.549Z,-0.58
2023-02-06T09:21:10.350Z,-0.52
2023-02-06T09:23:40.792Z,-0.51
2023-02-06T09:26:09.781Z,-0.45
2023-02-06T09:28:38.358Z,-0.40
2023-02-06T09:31:08.465Z,-0.37
2023-02-06T09:33:38.227Z,-0.34
2023-02-06T09:36:09.222Z,-0.29
2023-02-06T09:38:40.198Z,-0.25
2023-02-06T09:41:17.266Z,-0.21
2023-02-06T09:43:52.929Z,-0.21
2023-02-06T09:46:27.615Z,-0.12
2023-02-06T09:48:59.506Z,-0.16
2023-02-06T09:51:40.220Z,-0.10
2023-02-06T09:54:18.101Z,-0.04
2023-02-06T09:56:54.464Z,0.03
2023-02-06T09:59:28.657Z,-0.02
2023-02-06T10:02:07.688Z,0.04
2023-02-06T10:04:46.929Z,0.13
2023-02-06T10:07:44.475Z,0.16
2023-02-06T10:10:19.322Z,0.14
2023-02-06T10:12:53.456Z,0.12
2023-02-06T10:15:30.224Z,0.25
2023-02-06T10:18:02.978Z,0.30
2023-02-06T10:20:38.635Z,0.35
2023-02-06T10:23:15.316Z,0.38
2023-02-06T10:26:04.605Z,0.52
2023-02-06T10:28:35.592Z,0.57
2023-02-06T10:31:17.587Z,0.48
2023-02-06T10:33:52.443Z,0.53
2023-02-06T10:36:41.907Z,0.56
2023-02-06T10:39:33.001Z,0.61
2023-02-06T10:42:09.976Z,0.58
2023-02-06T10:44:51.149Z,0.66
2023-02-06T10:47:30.515Z,0.71
2023-02-06T10:50:04.930Z,0.83
2023-02-06T10:52:36.993Z,0.89
2023-02-06T10:55:18.102Z,0.97
2023-02-06T10:57:51.357Z,0.90
2023-02-06T11:00:27.675Z,0.85
2023-02-06T11:03:07.201Z,0.85
2023-02-06T11:05:37.224Z,0.69
2023-02-06T11:08:12.673Z,0.87
2023-02-06T11:10:41.739Z,0.92
2023-02-06T11:13:16.567Z,0.88
2023-02-06T11:15:55.523Z,0.89
2023-02-06T11:18:31.169Z,1.03
2023-02-06T11:21:00.328Z,1.19
2023-02-06T11:23:31.171Z,1.27
2023-02-06T11:26:09.201Z,1.34
2023-02-06T11:28:42.573Z,1.29
2023-02-06T11:31:13.360Z,1.39
2023-02-06T11:33:49.335Z,1.42
2023-02-06T11:36:27.778Z,1.53
2023-02-06T11:38:58.845Z,1.71
2023-02-06T11:41:28.226Z,1.69
2023-02-06T11:44:07.271Z,1.87
2023-02-06T11:46:37.593Z,1.96
2023-02-06T11:49:09.872Z,1.89
2023-02-06T11:51:51.735Z,1.79
2023-02-06T11:54:23.226Z,1.71
2023-02-06T11:57:02.244Z,1.68
2023-02-06T11:59:34.810Z,1.57
2023-02-06T12:02:07.198Z,1.58
2023-02-06T12:04:39.374Z,1.34
2023-02-06T12:07:30.208Z,1.50
2023-02-06T12:09:58.836Z,1.53
2023-02-06T12:12:31.346Z,1.49
2023-02-06T12:15:23.652Z,1.27
2023-02-06T12:17:56.894Z,1.36
2023-02-06T12:20:29.588Z,1.27
2023-02-06T12:23:02.532Z,1.31
2023-02-06T12:25:36.677Z,1.33
2023-02-06T12:28:22.664Z,1.28
2023-02-06T12:30:57.347Z,1.35
2023-02-06T12:33:34.245Z,1.39
2023-02-06T12:36:08.239Z,1.38
2023-02-06T12:38:44.307Z,1.47
2023-02-06T12:41:25.204Z,1.54
2023-02-06T12:43:58.355Z,1.58
2023-02-06T12:46:30.016Z,1.66
2023-02-06T12:49:16.372Z,1.69
2023-02-06T12:51:59.534Z,1.66
2023-02-06T12:54:33.667Z,1.69
2023-02-06T12:57:06.520Z,1.76
2023-02-06T12:59:58.492Z,1.83
2023-02-06T13:03:03.821Z,1.84
2023-02-06T13:05:37.632Z,1.87
2023-02-06T13:08:10.111Z,1.87
2023-02-06T13:10:39.705Z,1.86
2023-02-06T13:13:08.892Z,1.81
2023-02-06T13:15:41.547Z,1.72
2023-02-06T13:18:50.977Z,1.84
2023-02-06T13:21:28.805Z,1.83
2023-02-06T13:24:22.053Z,1.78
2023-02-06T13:27:05.144Z,1.88
2023-02-06T13:29:35.621Z,1.87
2023-02-06T13:32:46.734Z,1.86
2023-02-06T13:35:30.080Z,1.86
2023-02-06T13:38:29.978Z,1.82
2023-02-06T13:41:28.480Z,1.80
2023-02-06T13:43:59.375Z,1.79
2023-02-06T13:46:42.285Z,1.73
2023-02-06T13:49:32.176Z,1.74
2023-02-06T13:52:20.173Z,1.76
2023-02-06T13:55:01.262Z,1.75
2023-02-06T13:58:04.542Z,1.76
2023-02-06T14:00:35.541Z,1.73
2023-02-06T14:03:08.149Z,1.75
2023-02-06T14:05:46.738Z,1.76
2023-02-06T14:08:28.493Z,1.76
2023-02-06T14:11:16.559Z,1.75
2023-02-06T14:14:14.795Z,1.65
2023-02-06T14:16:50.991Z,1.65
2023-02-06T14:19:28.630Z,1.65
2023-02-06T14:22:05.119Z,1.57
2023-02-06T14:24:50.786Z,1.63
2023-02-06T14:27:30.528Z,1.49
2023-02-06T14:30:09.558Z,1.59
2023-02-06T14:32:45.681Z,1.57
2023-02-06T14:35:44.497Z,1.61
2023-02-06T14:38:37.318Z,1.52
2023-02-06T14:41:07.968Z,1.39
2023-02-06T14:43:40.701Z,1.34
2023-02-06T14:46:14.965Z,1.38
2023-02-06T14:48:49.020Z,1.32
2023-02-06T14:51:25.218Z,1.41
2023-02-06T14:53:56.707Z,1.32
2023-02-06T14:56:32.539Z,1.31
2023-02-06T14:59:16.887Z,1.26
2023-02-06T15:01:47.629Z,1.21
2023-02-06T15:04:18.781Z,1.26
2023-02-06T15:06:53.791Z,1.15
2023-02-06T15:09:30.936Z,1.12
2023-02-06T15:12:02.896Z,1.10
2023-02-06T15:14:34.204Z,1.17
2023-02-06T15:17:03.771Z,1.10
2023-02-06T15:19:33.851Z,1.11
2023-02-06T15:22:04.538Z,1.22
2023-02-06T15:24:47.385Z,1.27
2023-02-06T15:27:27.863Z,1.27
2023-02-06T15:29:56.891Z,1.30
2023-02-06T15:32:30.359Z,1.89
2023-02-06T15:34:59.449Z,1.79
2023-02-06T15:37:30.480Z,1.76
2023-02-06T15:40:03.756Z,1.66
2023-02-06T15:42:34.140Z,1.48
2023-02-06T15:45:02.976Z,1.39
2023-02-06T15:47:32.451Z,1.46
2023-02-06T15:50:01.472Z,1.43
2023-02-06T15:52:36.111Z,1.37
2023-02-06T15:55:05.372Z,1.32
2023-02-06T15:57:40.290Z,1.25
2023-02-06T16:00:23.728Z,1.23
2023-02-06T16:02:54.073Z,1.22
2023-02-06T16:05:30.954Z,1.15
2023-02-06T16:08:00.312Z,1.16
2023-02-06T16:10:31.258Z,1.17
2023-02-06T16:13:03.481Z,1.14
2023-02-06T16:15:34.913Z,1.08
2023-02-06T16:18:21.120Z,1.11
2023-02-06T16:20:49.670Z,1.07
2023-02-06T16:23:24.132Z,1.11
2023-02-06T16:26:05.767Z,1.10
2023-02-06T16:28:42.860Z,1.06
2023-02-06T16:31:16.813Z,1.10
2023-02-06T16:33:47.758Z,1.11
2023-02-06T16:36:21.298Z,1.13
2023-02-06T16:39:02.831Z,1.13
2023-02-06T16:41:34.888Z,1.12
2023-02-06T16:44:08.450Z,1.10
2023-02-06T16:46:37.207Z,1.08
2023-02-06T16:49:11.820Z,1.09
2023-02-06T16:51:42.615Z,1.06
2023-02-06T16:54:20.614Z,1.06
2023-02-06T16:56:49.539Z,1.03
2023-02-06T16:59:19.977Z,1.02
2023-02-06T17:01:48.791Z,1.01
2023-02-06T17:04:17.495Z,1.00
2023-02-06T17:06:46.521Z,0.96
2023-02-06T17:09:18.617Z,0.87
2023-02-06T17:11:47.488Z,0.94
2023-02-06T17:14:16.317Z,0.90
2023-02-06T17:16:46.301Z,0.89
2023-02-06T17:19:17.951Z,0.86
2023-02-06T17:21:47.311Z,0.82
2023-02-06T17:24:16.765Z,0.79
2023-02-06T17:26:48.201Z,0.74
2023-02-06T17:29:17.344Z,0.70
2023-02-06T17:31:47.863Z,0.63
2023-02-06T17:34:16.441Z,0.63
2023-02-06T17:36:46.216Z,0.59
2023-02-06T17:39:16.472Z,0.50
2023-02-06T17:41:46.409Z,0.54
2023-02-06T17:44:15.202Z,0.46
2023-02-06T17:46:50.105Z,0.44
2023-02-06T17:49:19.669Z,0.31
2023-02-06T17:51:49.043Z,0.39
2023-02-06T17:54:18.304Z,0.36
2023-02-06T17:56:46.791Z,0.32
2023-02-06T17:59:15.349Z,0.29
2023-02-06T18:01:43.974Z,0.26
2023-02-06T18:04:17.631Z,0.25
2023-02-06T18:06:46.726Z,0.20
2023-02-06T18:09:16.708Z,0.17
2023-02-06T18:11:45.186Z,0.19
2023-02-06T18:14:14.227Z,0.12
2023-02-06T18:16:43.151Z,0.11
2023-02-06T18:19:11.845Z,0.09
2023-02-06T18:21:42.235Z,0.06
2023-02-06T18:24:11.172Z,-0.01
2023-02-06T18:26:40.236Z,0.00
2023-02-06T18:29:08.748Z,-0.03
2023-02-06T18:31:37.977Z,-0.06
2023-02-06T18:34:09.517Z,-0.10
2023-02-06T18:36:38.857Z,-0.12
2023-02-06T18:39:12.578Z,-0.14
2023-02-06T18:41:58.578Z,-0.18
2023-02-06T18:44:27.089Z,-0.22
2023-02-06T18:46:56.332Z,-0.26
2023-02-06T18:49:26.964Z,-0.32
2023-02-06T18:51:55.498Z,-0.32
2023-02-06T18:54:25.410Z,-0.36
2023-02-06T18:56:53.915Z,-0.39
2023-02-06T18:59:22.875Z,-0.41
2023-02-06T19:01:54.066Z,-0.49
2023-02-06T19:04:23.405Z,-0.46
2023-02-06T19:06:52.100Z,-0.50
2023-02-06T19:09:21.268Z,-0.56
2023-02-06T19:11:51.400Z,-0.55
2023-02-06T19:14:22.849Z,-0.58
2023-02-06T19:16:53.172Z,-0.62
2023-02-06T19:19:21.897Z,-0.68
2023-02-06T19:21:50.602Z,-0.68
2023-02-06T19:24:20.188Z,-0.79
2023-02-06T19:26:48.798Z,-0.74
2023-02-06T19:29:33.635Z,-0.81
2023-02-06T19:32:03.938Z,-0.87
2023-02-06T19:34:36.313Z,-0.85
2023-02-06T19:37:05.466Z,-0.90
2023-02-06T19:39:35.250Z,-0.86
2023-02-06T19:42:06.601Z,-0.89
2023-02-06T19:44:38.067Z,-0.90
2023-02-06T19:47:07.247Z,-0.91
2023-02-06T19:49:35.826Z,-0.97
2023-02-06T19:52:04.709Z,-1.01
2023-02-06T19:54:33.526Z,-1.08
2023-02-06T19:57:02.035Z,-1.11
2023-02-06T19:59:31.212Z,-1.16
2023-02-06T20:02:04.655Z,-1.15
2023-02-06T20:04:36.722Z,-1.19
2023-02-06T20:07:05.265Z,-1.21
2023-02-06T20:09:33.743Z,-1.26
2023-02-06T20:12:02.208Z,-1.28
2023-02-06T20:14:31.603Z,-1.33
2023-02-06T20:17:00.122Z,-1.35
2023-02-06T20:19:31.167Z,-1.35
2023-02-06T20:22:01.605Z,-1.38
2023-02-06T20:24:32.935Z,-1.45
2023-02-06T20:27:06.030Z,-1.47
2023-02-06T20:29:36.572Z,-1.47
2023-02-06T20:32:06.234Z,-1.53
2023-02-06T20:34:36.730Z,-1.53
2023-02-06T20:37:05.393Z,-1.58
2023-02-06T20:39:34.816Z,-1.56
2023-02-06T20:42:03.360Z,-1.62
2023-02-06T20:44:31.982Z,-1.55
2023-02-06T20:47:01.310Z,-1.36
2023-02-06T20:49:31.357Z,-1.36
2023-02-06T20:52:01.652Z,-1.45
2023-02-06T20:54:30.883Z,-1.49
2023-02-06T20:57:00.622Z,-1.57
2023-02-06T20:59:29.453Z,-1.68
2023-02-06T21:01:59.103Z,-1.64
2023-02-06T21:04:28.049Z,-1.68
2023-02-06T21:06:56.578Z,-1.70
2023-02-06T21:09:26.816Z,-1.72
2023-02-06T21:11:55.218Z,-1.77
2023-02-06T21:14:24.056Z,-1.86
2023-02-06T21:16:52.736Z,-1.81
2023-02-06T21:19:22.403Z,-1.82
2023-02-06T21:21:51.047Z,-1.90
2023-02-06T21:24:19.953Z,-1.87
2023-02-06T21:26:50.281Z,-1.91
2023-02-06T21:29:18.764Z,-1.96
2023-02-06T21:31:47.734Z,-2.05
2023-02-06T21:34:18.274Z,-1.99
2023-02-06T21:36:47.686Z,-2.01
2023-02-06T21:39:18.605Z,-2.05
2023-02-06T21:41:48.155Z,-2.08
2023-02-06T21:44:19.188Z,-2.10
2023-02-06T21:46:47.780Z,-2.14
2023-02-06T21:49:16.756Z,-2.16
2023-02-06T21:51:45.564Z,-2.22
2023-02-06T21:54:14.469Z,-2.21
2023-02-06T21:56:43.072Z,-2.25
2023-02-06T21:59:13.172Z,-2.26
2023-02-06T22:01:43.510Z,-2.28
2023-02-06T22:04:13.336Z,-2.31
2023-02-06T22:06:42.013Z,-2.34
2023-02-06T22:09:15.914Z,-2.33
2023-02-06T22:11:45.336Z,-2.37
2023-02-06T22:14:16.535Z,-2.39
2023-02-06T22:16:47.569Z,-2.41
2023-02-06T22:19:17.227Z,-2.42
2023-02-06T22:21:46.375Z,-2.42
2023-02-06T22:24:15.633Z,-2.47
2023-02-06T22:26:44.446Z,-2.54
2023-02-06T22:29:15.280Z,-2.50
2023-02-06T22:31:48.739Z,-2.53
2023-02-06T22:34:19.638Z,-2.55
2023-02-06T22:36:49.217Z,-2.64
2023-02-06T22:39:18.114Z,-2.64
2023-02-06T22:41:47.512Z,-2.65
2023-02-06T22:44:17.479Z,-2.66
2023-02-06T22:46:50.294Z,-2.78
2023-02-06T22:49:19.852Z,-2.70
2023-02-06T22:51:48.549Z,-2.74
2023-02-06T22:54:17.125Z,-2.74
2023-02-06T22:56:46.123Z,-2.76
2023-02-06T22:59:17.278Z,-2.81
2023-02-06T23:01:49.462Z,-2.85
2023-02-06T23:04:19.759Z,-3.00
2023-02-06T23:06:49.530Z,-3.05
2023-02-06T23:09:20.103Z,-3.06
2023-02-06T23:11:49.477Z,-3.07
2023-02-06T23:14:19.223Z,-3.08
2023-02-06T23:16:49.595Z,-3.08
2023-02-06T23:19:19.415Z,-3.11
2023-02-06T23:21:49.441Z,-3.14
2023-02-06T23:24:18.611Z,-3.01
2023-02-06T23:26:48.882Z,-3.02
2023-02-06T23:29:19.566Z,-3.02
2023-02-06T23:31:50.016Z,-3.02
2023-02-06T23:34:20.061Z,-3.04
2023-02-06T23:36:49.252Z,-3.03
2023-02-06T23:39:17.820Z,-3.09
2023-02-06T23:41:46.505Z,-3.08
2023-02-06T23:44:15.395Z,-3.11
2023-02-06T23:46:43.916Z,-3.15
2023-02-06T23:49:14.136Z,-3.18
2023-02-06T23:51:42.741Z,-3.31
2023-02-06T23:54:11.592Z,-3.32
2023-02-06T23:56:40.413Z,-3.38
2023-02-06T23:59:09.228Z,-3.30
